createdAt,value
2018-07-26T00:00:01.489Z,15.70
2018-07-26T00:02:30.247Z,13.67
2018-07-26T00:04:59.315Z,14.67
2018-07-26T00:07:28.107Z,13.33
2018-07-26T00:09:56.830Z,15.23
2018-07-26T00:12:25.881Z,13.83
2018-07-26T00:14:54.703Z,12.80
2018-07-26T00:17:23.746Z,13.77
2018-07-26T00:19:53.102Z,14.40
2018-07-26T00:22:21.800Z,14.83
2018-07-26T00:24:53.717Z,14.87
2018-07-26T00:27:22.447Z,16.40
2018-07-26T00:29:51.539Z,15.30
2018-07-26T00:32:20.307Z,14.57
2018-07-26T00:34:49.105Z,13.70
2018-07-26T00:37:18.161Z,15.70
2018-07-26T00:39:47.704Z,15.83
2018-07-26T00:42:16.892Z,17.30
2018-07-26T00:44:45.987Z,16.50
2018-07-26T00:47:15.348Z,16.80
2018-07-26T00:49:44.721Z,16.50
2018-07-26T00:52:13.933Z,17.90
2018-07-26T00:54:42.704Z,18.53
2018-07-26T00:57:12.279Z,19.23
2018-07-26T00:59:41.265Z,17.23
2018-07-26T01:02:10.026Z,17.27
2018-07-26T01:04:39.452Z,18.60
2018-07-26T01:07:08.276Z,18.70
2018-07-26T01:09:37.931Z,18.60
2018-07-26T01:12:06.875Z,16.97
2018-07-26T01:14:36.744Z,17.53
2018-07-26T01:17:06.983Z,17.63
2018-07-26T01:19:36.943Z,19.40
2018-07-26T01:22:07.633Z,19.07
2018-07-26T01:24:36.682Z,18.20
2018-07-26T01:27:05.465Z,18.50
2018-07-26T01:29:34.466Z,19.80
2018-07-26T01:32:03.823Z,18.63
2018-07-26T01:34:32.590Z,18.83
2018-07-26T01:37:01.627Z,17.70
2018-07-26T01:39:30.343Z,18.97
2018-07-26T01:42:00.055Z,19.27
2018-07-26T01:44:29.311Z,18.90
2018-07-26T01:46:58.722Z,18.30
2018-07-26T01:49:27.665Z,18.30
2018-07-26T01:51:56.393Z,21.00
2018-07-26T01:54:25.466Z,19.60
2018-07-26T01:56:54.467Z,19.10
2018-07-26T01:59:23.881Z,21.90
2018-07-26T02:01:52.874Z,22.03
2018-07-26T02:04:22.288Z,19.90
2018-07-26T02:06:51.675Z,19.70
2018-07-26T02:09:20.749Z,21.10
2018-07-26T02:11:49.757Z,21.60
2018-07-26T02:14:24.165Z,22.97
2018-07-26T02:16:53.139Z,23.20
2018-07-26T02:19:22.191Z,21.80
2018-07-26T02:21:50.954Z,21.30
2018-07-26T02:24:20.060Z,22.00
2018-07-26T02:26:49.118Z,20.87
2018-07-26T02:29:18.206Z,23.40
2018-07-26T02:31:47.253Z,20.00
2018-07-26T02:34:16.753Z,22.87
2018-07-26T02:36:45.949Z,23.90
2018-07-26T02:39:14.699Z,22.83
2018-07-26T02:41:43.476Z,22.50
2018-07-26T02:44:12.788Z,23.00
2018-07-26T02:46:41.772Z,23.40
2018-07-26T02:49:10.503Z,20.57
2018-07-26T02:51:40.025Z,22.50
2018-07-26T02:54:09.055Z,22.23
2018-07-26T02:56:37.802Z,22.83
2018-07-26T02:59:06.564Z,23.43
2018-07-26T03:01:35.683Z,22.23
2018-07-26T03:04:04.832Z,22.83
2018-07-26T03:06:33.789Z,21.27
2018-07-26T03:09:02.878Z,24.50
2018-07-26T03:11:31.986Z,22.93
2018-07-26T03:14:01.280Z,23.80
2018-07-26T03:16:30.360Z,24.10
2018-07-26T03:18:59.108Z,24.13
2018-07-26T03:21:28.112Z,23.70
2018-07-26T03:23:56.842Z,22.50
2018-07-26T03:26:26.296Z,22.70
2018-07-26T03:28:55.316Z,21.20
2018-07-26T03:31:24.397Z,21.93
2018-07-26T03:33:53.148Z,22.87
2018-07-26T03:36:22.151Z,24.20
2018-07-26T03:38:51.290Z,22.00
2018-07-26T03:41:20.056Z,24.00
2018-07-26T03:43:49.073Z,25.13
2018-07-26T03:46:17.857Z,24.50
2018-07-26T03:48:46.850Z,23.70
2018-07-26T03:51:16.250Z,22.20
2018-07-26T03:53:45.564Z,22.97
2018-07-26T03:56:14.326Z,24.10
2018-07-26T03:58:43.322Z,23.90
2018-07-26T04:01:12.314Z,23.17
2018-07-26T04:03:41.902Z,23.10
2018-07-26T04:06:11.553Z,24.10
2018-07-26T04:08:40.387Z,24.30
2018-07-26T04:11:09.422Z,24.17
2018-07-26T04:13:38.745Z,24.90
2018-07-26T04:16:07.853Z,22.43
2018-07-26T04:18:37.271Z,22.93
2018-07-26T04:21:07.632Z,24.10
2018-07-26T04:23:35.571Z,22.20
2018-07-26T04:26:04.587Z,22.50
2018-07-26T04:28:33.364Z,22.67
2018-07-26T04:31:02.099Z,23.20
2018-07-26T04:33:30.836Z,21.90
2018-07-26T04:35:59.904Z,22.77
2018-07-26T04:38:28.663Z,22.63
2018-07-26T04:40:57.753Z,21.03
2018-07-26T04:43:26.504Z,20.93
2018-07-26T04:45:55.631Z,22.60
2018-07-26T04:48:24.786Z,23.27
2018-07-26T04:50:53.841Z,21.83
2018-07-26T04:53:22.566Z,23.10
2018-07-26T04:55:52.807Z,22.80
2018-07-26T04:58:21.604Z,21.53
2018-07-26T05:00:50.338Z,22.73
2018-07-26T05:03:19.087Z,23.67
2018-07-26T05:05:48.141Z,22.70
2018-07-26T05:08:16.928Z,22.70
2018-07-26T05:10:45.736Z,24.00
2018-07-26T05:13:14.770Z,21.73
2018-07-26T05:15:43.829Z,22.77
2018-07-26T05:18:13.057Z,25.00
2018-07-26T05:20:42.938Z,23.57
2018-07-26T05:23:12.035Z,21.90
2018-07-26T05:25:41.280Z,22.23
2018-07-26T05:28:10.073Z,23.70
2018-07-26T05:30:39.258Z,23.60
2018-07-26T05:33:08.009Z,21.70
2018-07-26T05:35:37.058Z,22.50
2018-07-26T05:38:06.147Z,24.47
2018-07-26T05:40:35.348Z,23.40
2018-07-26T05:43:04.284Z,23.27
2018-07-26T05:45:33.614Z,22.83
2018-07-26T05:48:02.407Z,23.60
2018-07-26T05:50:31.536Z,23.80
2018-07-26T05:53:00.331Z,23.57
2018-07-26T05:55:29.708Z,23.57
2018-07-26T05:57:59.107Z,21.43
2018-07-26T06:00:28.272Z,22.27
2018-07-26T06:02:57.340Z,21.40
2018-07-26T06:05:26.111Z,21.07
2018-07-26T06:07:55.657Z,20.57
2018-07-26T06:10:24.688Z,21.87
2018-07-26T06:12:53.503Z,20.83
2018-07-26T06:15:22.321Z,20.63
2018-07-26T06:17:51.256Z,20.00
2018-07-26T06:20:20.438Z,19.80
2018-07-26T06:22:50.567Z,20.27
2018-07-26T06:25:19.994Z,19.00
2018-07-26T06:27:48.793Z,19.67
2018-07-26T06:30:17.534Z,18.70
2018-07-26T06:32:47.329Z,19.13
2018-07-26T06:35:16.120Z,16.00
2018-07-26T06:37:44.865Z,16.30
2018-07-26T06:40:14.605Z,14.73
2018-07-26T06:42:43.674Z,16.80
2018-07-26T06:45:12.429Z,15.43
2018-07-26T06:47:41.535Z,15.13
2018-07-26T06:50:12.092Z,14.03
2018-07-26T06:52:41.421Z,13.10
2018-07-26T06:55:10.619Z,11.20
2018-07-26T06:57:40.286Z,9.30
2018-07-26T07:00:10.453Z,8.67
2018-07-26T07:02:40.282Z,7.90
2018-07-26T07:05:09.557Z,8.83
2018-07-26T07:07:38.916Z,8.50
2018-07-26T07:10:08.374Z,7.10
2018-07-26T07:12:37.530Z,6.70
2018-07-26T07:15:06.268Z,8.13
2018-07-26T07:17:35.059Z,8.07
2018-07-26T07:20:04.113Z,8.37
2018-07-26T07:22:33.103Z,8.13
2018-07-26T07:25:02.188Z,8.50
2018-07-26T07:27:31.163Z,7.50
2018-07-26T07:29:59.965Z,8.17
2018-07-26T07:32:29.362Z,7.37
2018-07-26T07:34:58.663Z,6.30
2018-07-26T07:37:27.500Z,6.57
2018-07-26T07:39:56.242Z,7.10
2018-07-26T07:42:25.440Z,6.57
2018-07-26T07:44:54.223Z,6.90
2018-07-26T07:47:23.093Z,6.73
2018-07-26T07:49:52.099Z,5.83
2018-07-26T07:52:21.438Z,5.57
2018-07-26T07:54:50.314Z,5.47
2018-07-26T07:57:19.144Z,5.80
2018-07-26T07:59:47.939Z,6.60
2018-07-26T08:02:17.032Z,4.97
2018-07-26T08:04:46.034Z,6.17
2018-07-26T08:07:15.067Z,5.90
2018-07-26T08:09:43.809Z,5.63
2018-07-26T08:12:12.932Z,5.20
2018-07-26T08:14:41.674Z,5.67
2018-07-26T08:17:10.397Z,5.63
2018-07-26T08:19:39.471Z,5.63
2018-07-26T08:22:08.222Z,5.80
2018-07-26T08:24:37.441Z,5.70
2018-07-26T08:27:06.889Z,5.60
2018-07-26T08:29:35.654Z,5.90
2018-07-26T08:32:05.299Z,5.60
2018-07-26T08:34:34.723Z,4.60
2018-07-26T08:37:03.784Z,5.97
2018-07-26T08:39:32.542Z,5.70
2018-07-26T08:42:01.355Z,5.00
2018-07-26T08:44:30.343Z,5.57
2018-07-26T08:46:59.769Z,5.30
2018-07-26T08:49:29.052Z,4.50
2018-07-26T08:51:58.005Z,5.10
2018-07-26T08:54:28.702Z,5.23
2018-07-26T08:56:58.422Z,5.43
2018-07-26T08:59:28.493Z,5.40
2018-07-26T09:01:57.597Z,4.80
2018-07-26T09:04:27.962Z,4.80
2018-07-26T09:06:57.374Z,5.07
2018-07-26T09:09:26.090Z,4.20
2018-07-26T09:11:56.350Z,4.50
2018-07-26T09:14:26.074Z,4.53
2018-07-26T09:16:55.506Z,4.23
2018-07-26T09:19:24.799Z,4.83
2018-07-26T09:21:53.919Z,4.97
2018-07-26T09:24:22.734Z,4.47
2018-07-26T09:26:51.977Z,3.97
2018-07-26T09:29:21.330Z,4.23
2018-07-26T09:31:50.566Z,3.90
2018-07-26T09:34:20.121Z,3.70
2018-07-26T09:36:48.986Z,4.40
2018-07-26T09:39:17.786Z,3.93
2018-07-26T09:41:46.577Z,4.13
2018-07-26T09:44:15.575Z,3.47
2018-07-26T09:46:44.569Z,2.83
2018-07-26T09:49:13.402Z,4.17
2018-07-26T09:51:43.117Z,3.40
2018-07-26T09:54:12.118Z,3.10
2018-07-26T09:56:40.934Z,3.80
2018-07-26T09:59:09.945Z,3.50
2018-07-26T10:01:40.304Z,3.10
2018-07-26T10:04:09.734Z,2.90
2018-07-26T10:06:40.718Z,3.47
2018-07-26T10:09:23.512Z,3.07
2018-07-26T10:14:13.221Z,2.53
2018-07-26T10:16:42.184Z,2.70
2018-07-26T10:19:11.251Z,2.80
2018-07-26T10:21:40.212Z,2.33
2018-07-26T10:24:10.333Z,2.30
2018-07-26T10:26:40.177Z,2.53
2018-07-26T10:29:10.779Z,2.40
2018-07-26T10:31:39.567Z,2.30
2018-07-26T10:34:08.609Z,2.90
2018-07-26T10:36:38.144Z,3.37
2018-07-26T10:39:08.891Z,2.30
2018-07-26T10:41:37.639Z,2.43
2018-07-26T10:44:07.155Z,2.13
2018-07-26T10:46:36.519Z,2.13
2018-07-26T10:49:05.980Z,2.80
2018-07-26T10:51:35.362Z,2.60
2018-07-26T10:54:04.123Z,2.80
2018-07-26T10:56:33.047Z,2.70
2018-07-26T10:59:06.786Z,2.50
2018-07-26T11:01:36.520Z,2.07
2018-07-26T11:04:05.301Z,2.57
2018-07-26T11:06:35.027Z,2.43
2018-07-26T11:09:04.403Z,3.20
2018-07-26T11:11:33.755Z,3.00
2018-07-26T11:14:02.897Z,2.17
2018-07-26T11:16:31.997Z,2.83
2018-07-26T11:19:01.853Z,2.40
2018-07-26T11:21:31.199Z,2.60
2018-07-26T11:24:00.277Z,2.57
2018-07-26T11:26:29.004Z,2.07
2018-07-26T11:28:58.222Z,2.10
2018-07-26T11:31:27.007Z,2.23
2018-07-26T11:33:56.110Z,2.30
2018-07-26T11:36:25.424Z,2.80
2018-07-26T11:38:54.433Z,2.23
2018-07-26T11:41:23.260Z,2.00
2018-07-26T11:43:52.091Z,2.20
2018-07-26T11:46:20.850Z,2.30
2018-07-26T11:48:49.622Z,2.30
2018-07-26T11:51:18.702Z,2.53
2018-07-26T11:53:47.964Z,1.87
2018-07-26T11:56:17.319Z,2.50
2018-07-26T11:58:46.064Z,1.60
2018-07-26T12:01:14.808Z,1.80
2018-07-26T12:03:43.766Z,1.80
2018-07-26T12:06:12.866Z,2.53
2018-07-26T12:08:41.578Z,2.00
2018-07-26T12:11:10.681Z,2.37
2018-07-26T12:13:40.018Z,2.00
2018-07-26T12:16:08.746Z,2.30
2018-07-26T12:18:37.479Z,2.13
2018-07-26T12:21:06.546Z,1.67
2018-07-26T12:23:36.017Z,2.40
2018-07-26T12:26:05.378Z,1.87
2018-07-26T12:28:34.113Z,2.17
2018-07-26T12:31:03.502Z,2.13
2018-07-26T12:33:32.298Z,1.90
2018-07-26T12:36:01.563Z,1.90
2018-07-26T12:38:30.867Z,1.73
2018-07-26T12:41:00.519Z,2.30
2018-07-26T12:43:29.689Z,2.87
2018-07-26T12:45:58.440Z,2.13
2018-07-26T12:48:27.463Z,2.00
2018-07-26T12:50:56.755Z,2.63
2018-07-26T12:53:26.111Z,2.83
2018-07-26T12:55:55.999Z,2.33
2018-07-26T12:58:25.250Z,2.73
2018-07-26T13:00:54.766Z,2.50
2018-07-26T13:03:23.741Z,2.63
2018-07-26T13:05:52.705Z,3.03
2018-07-26T13:08:22.509Z,2.40
2018-07-26T13:10:51.582Z,2.63
2018-07-26T13:13:20.318Z,2.43
2018-07-26T13:15:49.997Z,2.93
2018-07-26T13:18:19.402Z,2.40
2018-07-26T13:20:48.121Z,2.23
2018-07-26T13:23:17.198Z,2.77
2018-07-26T13:25:45.952Z,2.30
2018-07-26T13:28:14.979Z,2.43
2018-07-26T13:30:44.328Z,2.13
2018-07-26T13:33:13.130Z,3.20
2018-07-26T13:35:42.279Z,2.60
2018-07-26T13:38:11.075Z,2.40
2018-07-26T13:40:40.128Z,2.47
2018-07-26T13:43:09.184Z,2.53
2018-07-26T13:45:38.382Z,2.50
2018-07-26T13:48:07.202Z,2.50
2018-07-26T13:50:35.936Z,2.23
2018-07-26T13:53:05.289Z,2.40
2018-07-26T13:55:34.158Z,3.17
2018-07-26T13:58:03.153Z,2.67
2018-07-26T14:00:33.172Z,2.17
2018-07-26T14:03:05.205Z,2.83
2018-07-26T14:05:35.186Z,2.30
2018-07-26T14:08:05.056Z,3.03
2018-07-26T14:10:35.115Z,2.53
2018-07-26T14:13:04.207Z,2.40
2018-07-26T14:15:33.303Z,2.57
2018-07-26T14:18:02.339Z,2.63
2018-07-26T14:20:32.333Z,2.40
2018-07-26T14:23:01.774Z,2.40
2018-07-26T14:25:31.752Z,2.83
2018-07-26T14:28:01.089Z,2.73
2018-07-26T14:30:30.846Z,2.10
2018-07-26T14:32:59.871Z,2.30
2018-07-26T14:35:33.188Z,2.27
2018-07-26T14:38:02.026Z,2.50
2018-07-26T14:40:31.387Z,1.97
2018-07-26T14:43:00.598Z,1.93
2018-07-26T14:45:30.834Z,2.30
2018-07-26T14:47:59.656Z,2.57
2018-07-26T14:50:28.738Z,2.77
2018-07-26T14:53:00.661Z,2.03
2018-07-26T14:55:29.396Z,2.03
2018-07-26T14:57:58.409Z,2.10
2018-07-26T15:00:27.269Z,2.20
2018-07-26T15:02:59.140Z,2.30
2018-07-26T15:05:29.676Z,2.43
2018-07-26T15:07:59.063Z,2.00
2018-07-26T15:10:31.065Z,2.73
2018-07-26T15:13:00.718Z,2.50
2018-07-26T15:15:30.519Z,2.10
2018-07-26T15:17:59.808Z,2.03
2018-07-26T15:20:30.078Z,2.43
2018-07-26T15:23:00.132Z,1.70
2018-07-26T15:25:29.274Z,2.00
2018-07-26T15:27:58.580Z,1.77
2018-07-26T15:30:27.345Z,1.77
2018-07-26T15:32:56.162Z,2.20
2018-07-26T15:35:25.749Z,1.83
2018-07-26T15:37:55.448Z,1.93
2018-07-26T15:40:24.545Z,1.90
2018-07-26T15:42:53.351Z,2.00
2018-07-26T15:45:22.208Z,2.13
2018-07-26T15:47:51.439Z,2.07
2018-07-26T15:50:20.460Z,2.03
2018-07-26T15:52:49.642Z,2.13
2018-07-26T15:55:18.414Z,1.90
2018-07-26T15:57:47.206Z,1.90
2018-07-26T16:00:16.206Z,1.60
2018-07-26T16:02:45.384Z,2.10
2018-07-26T16:05:14.162Z,2.03
2018-07-26T16:07:42.938Z,2.47
2018-07-26T16:10:12.650Z,2.00
2018-07-26T16:12:42.751Z,2.37
2018-07-26T16:15:13.939Z,1.80
2018-07-26T16:17:44.774Z,1.57
2018-07-26T16:20:15.252Z,1.97
2018-07-26T16:22:44.341Z,1.77
2018-07-26T16:25:13.368Z,2.53
2018-07-26T16:27:42.098Z,1.97
2018-07-26T16:30:12.476Z,2.27
2018-07-26T16:32:41.309Z,1.90
2018-07-26T16:35:10.296Z,1.90
2018-07-26T16:37:39.054Z,2.20
2018-07-26T16:40:08.084Z,1.83
2018-07-26T16:42:38.165Z,2.50
2018-07-26T16:45:08.179Z,1.90
2018-07-26T16:47:37.305Z,1.83
2018-07-26T16:50:07.982Z,2.10
2018-07-26T16:52:37.358Z,2.10
2018-07-26T16:55:06.985Z,2.13
2018-07-26T16:57:36.661Z,1.90
2018-07-26T17:00:07.535Z,2.40
2018-07-26T17:02:37.058Z,1.57
2018-07-26T17:05:07.359Z,1.87
2018-07-26T17:07:36.520Z,1.90
2018-07-26T17:10:06.812Z,2.10
2018-07-26T17:12:36.195Z,2.27
2018-07-26T17:15:06.210Z,1.67
2018-07-26T17:17:35.079Z,2.00
2018-07-26T17:20:04.894Z,1.80
2018-07-26T17:22:34.451Z,1.83
2018-07-26T17:25:04.576Z,1.57
2018-07-26T17:27:34.005Z,1.77
2018-07-26T17:30:03.181Z,1.73
2018-07-26T17:32:32.117Z,1.87
2018-07-26T17:35:00.765Z,2.07
2018-07-26T17:37:29.870Z,1.50
2018-07-26T17:39:59.208Z,2.00
2018-07-26T17:42:28.924Z,2.50
2018-07-26T17:44:58.073Z,2.00
2018-07-26T17:47:27.432Z,2.00
2018-07-26T17:49:56.198Z,2.37
2018-07-26T17:52:25.230Z,2.43
2018-07-26T17:54:54.231Z,2.30
2018-07-26T17:57:23.287Z,2.03
2018-07-26T17:59:52.015Z,2.20
2018-07-26T18:02:21.121Z,2.07
2018-07-26T18:04:49.958Z,2.63
2018-07-26T18:07:19.100Z,2.23
2018-07-26T18:09:48.745Z,2.07
2018-07-26T18:12:17.692Z,2.07
2018-07-26T18:14:46.735Z,2.20
2018-07-26T18:17:15.869Z,1.70
2018-07-26T18:19:44.992Z,2.10
2018-07-26T18:22:13.974Z,2.43
2018-07-26T18:24:42.773Z,2.50
2018-07-26T18:27:11.521Z,2.10
2018-07-26T18:29:41.139Z,1.97
2018-07-26T18:32:09.962Z,2.50
2018-07-26T18:34:39.037Z,1.90
2018-07-26T18:37:07.878Z,1.90
2018-07-26T18:39:36.619Z,2.00
2018-07-26T18:42:06.571Z,1.90
2018-07-26T18:44:35.306Z,2.40
2018-07-26T18:47:04.074Z,2.43
2018-07-26T18:49:33.080Z,2.30
2018-07-26T18:52:02.138Z,1.70
2018-07-26T18:54:30.880Z,2.67
2018-07-26T18:56:59.906Z,2.00
2018-07-26T18:59:28.689Z,2.27
2018-07-26T19:01:58.094Z,2.30
2018-07-26T19:04:27.182Z,2.40
2018-07-26T19:06:55.959Z,2.63
2018-07-26T19:09:24.717Z,2.10
2018-07-26T19:11:53.718Z,2.10
2018-07-26T19:14:22.715Z,2.00
2018-07-26T19:16:52.751Z,2.33
2018-07-26T19:19:21.537Z,2.60
2018-07-26T19:21:50.531Z,2.37
2018-07-26T19:24:19.600Z,2.13
2018-07-26T19:26:48.560Z,2.63
2018-07-26T19:29:17.455Z,2.10
2018-07-26T19:31:46.197Z,2.23
2018-07-26T19:34:14.953Z,2.50
2018-07-26T19:36:43.741Z,2.40
2018-07-26T19:39:13.682Z,2.67
2018-07-26T19:41:43.215Z,2.80
2018-07-26T19:44:12.580Z,2.80
2018-07-26T19:46:41.639Z,2.33
2018-07-26T19:49:10.492Z,2.13
2018-07-26T19:51:39.248Z,2.63
2018-07-26T19:54:08.295Z,2.43
2018-07-26T19:56:37.027Z,4.07
2018-07-26T19:59:05.740Z,2.33
2018-07-26T20:01:34.763Z,2.53
2018-07-26T20:04:03.843Z,2.03
2018-07-26T20:06:32.987Z,2.90
2018-07-26T20:09:01.979Z,2.60
2018-07-26T20:11:31.021Z,2.57
2018-07-26T20:14:00.130Z,2.43
2018-07-26T20:16:29.141Z,2.73
2018-07-26T20:18:58.482Z,3.20
2018-07-26T20:21:27.239Z,3.07
2018-07-26T20:23:56.780Z,2.77
2018-07-26T20:26:25.934Z,2.80
2018-07-26T20:28:54.994Z,2.90
2018-07-26T20:31:23.716Z,3.13
2018-07-26T20:33:53.299Z,3.53
2018-07-26T20:36:22.390Z,2.97
2018-07-26T20:38:51.454Z,2.80
2018-07-26T20:41:21.192Z,3.70
2018-07-26T20:43:49.985Z,3.33
2018-07-26T20:46:18.759Z,3.20
2018-07-26T20:48:48.518Z,3.60
2018-07-26T20:51:17.424Z,3.23
2018-07-26T20:53:46.226Z,3.30
2018-07-26T20:56:15.574Z,3.47
2018-07-26T20:58:44.817Z,3.30
2018-07-26T21:01:13.625Z,4.17
2018-07-26T21:03:42.759Z,2.77
2018-07-26T21:06:11.558Z,3.50
2018-07-26T21:08:40.670Z,3.60
2018-07-26T21:11:09.570Z,3.23
2018-07-26T21:13:38.330Z,3.87
2018-07-26T21:16:07.457Z,3.43
2018-07-26T21:18:36.791Z,3.10
2018-07-26T21:21:05.566Z,3.17
2018-07-26T21:23:34.371Z,3.10
2018-07-26T21:26:03.140Z,3.10
2018-07-26T21:28:32.463Z,3.10
2018-07-26T21:31:01.902Z,3.10
2018-07-26T21:33:30.984Z,3.50
2018-07-26T21:35:59.980Z,4.13
2018-07-26T21:38:28.733Z,4.13
2018-07-26T21:40:57.766Z,3.20
2018-07-26T21:43:26.612Z,2.60
2018-07-26T21:45:55.975Z,3.90
2018-07-26T21:48:24.724Z,3.70
2018-07-26T21:50:53.783Z,3.10
2018-07-26T21:53:22.511Z,3.17
2018-07-26T21:55:51.314Z,3.60
2018-07-26T21:58:20.111Z,3.60
2018-07-26T22:00:53.889Z,3.97
2018-07-26T22:03:22.598Z,3.97
2018-07-26T22:05:51.365Z,3.70
2018-07-26T22:08:20.558Z,3.50
2018-07-26T22:10:49.816Z,3.20
2018-07-26T22:13:19.259Z,3.40
2018-07-26T22:15:48.228Z,3.37
2018-07-26T22:18:16.963Z,3.33
2018-07-26T22:20:46.039Z,3.77
2018-07-26T22:23:14.809Z,3.00
2018-07-26T22:25:46.986Z,3.27
2018-07-26T22:28:15.935Z,3.37
2018-07-26T22:30:45.341Z,3.70
2018-07-26T22:33:14.645Z,3.40
2018-07-26T22:35:44.525Z,4.10
2018-07-26T22:38:13.784Z,4.73
2018-07-26T22:40:42.615Z,3.90
2018-07-26T22:43:11.715Z,3.77
2018-07-26T22:45:40.795Z,3.17
2018-07-26T22:48:09.799Z,3.63
2018-07-26T22:50:38.560Z,4.27
2018-07-26T22:53:07.330Z,3.80
2018-07-26T22:55:36.145Z,3.60
2018-07-26T22:58:04.906Z,3.23
2018-07-26T23:00:34.271Z,3.97
2018-07-26T23:03:03.015Z,3.37
2018-07-26T23:05:32.015Z,3.97
2018-07-26T23:08:00.783Z,3.10
2018-07-26T23:10:30.205Z,3.70
2018-07-26T23:12:59.010Z,4.73
2018-07-26T23:15:27.793Z,3.50
2018-07-26T23:17:56.779Z,4.30
2018-07-26T23:20:25.884Z,3.20
2018-07-26T23:22:56.077Z,3.97
2018-07-26T23:25:24.862Z,3.20
2018-07-26T23:27:53.649Z,3.67
2018-07-26T23:30:22.971Z,4.50
2018-07-26T23:32:51.914Z,3.40
2018-07-26T23:35:20.710Z,3.93
2018-07-26T23:37:49.748Z,4.50
2018-07-26T23:40:18.493Z,3.70
2018-07-26T23:42:47.532Z,4.27
2018-07-26T23:45:16.580Z,3.73
2018-07-26T23:47:45.293Z,4.17
2018-07-26T23:50:14.015Z,4.33
2018-07-26T23:52:43.425Z,3.83
2018-07-26T23:55:12.484Z,4.40
2018-07-26T23:57:41.204Z,4.03
